sensor_id;sensor_type;location;lat;lon;timestamp;pressure;altitude;pressure_sealevel;temperature
69420;BMP280;71621;52.030;113.516;2024-01-30T00:01:20;94561.25;;;-27.80
69420;BMP280;71621;52.030;113.516;2024-01-30T00:04:24;94556.97;;;-27.79
69420;BMP280;71621;52.030;113.516;2024-01-30T00:07:27;94558.78;;;-27.76
69420;BMP280;71621;52.030;113.516;2024-01-30T00:10:32;94559.09;;;-27.81
69420;BMP280;71621;52.030;113.516;2024-01-30T00:13:35;94559.81;;;-27.81
69420;BMP280;71621;52.030;113.516;2024-01-30T00:16:39;94565.97;;;-27.75
69420;BMP280;71621;52.030;113.516;2024-01-30T00:19:43;94563.47;;;-27.71
69420;BMP280;71621;52.030;113.516;2024-01-30T00:22:48;94563.81;;;-27.73
69420;BMP280;71621;52.030;113.516;2024-01-30T00:25:52;94573.50;;;-27.75
69420;BMP280;71621;52.030;113.516;2024-01-30T00:28:56;94570.97;;;-27.75
69420;BMP280;71621;52.030;113.516;2024-01-30T00:32:00;94580.38;;;-27.68
69420;BMP280;71621;52.030;113.516;2024-01-30T00:35:04;94588.66;;;-27.60
69420;BMP280;71621;52.030;113.516;2024-01-30T00:38:08;94584.38;;;-27.60
69420;BMP280;71621;52.030;113.516;2024-01-30T00:41:12;94591.44;;;-27.73
69420;BMP280;71621;52.030;113.516;2024-01-30T00:44:15;94594.91;;;-27.88
69420;BMP280;71621;52.030;113.516;2024-01-30T00:47:19;94587.63;;;-28.00
69420;BMP280;71621;52.030;113.516;2024-01-30T00:50:22;94599.41;;;-28.04
69420;BMP280;71621;52.030;113.516;2024-01-30T00:53:26;94596.53;;;-28.03
69420;BMP280;71621;52.030;113.516;2024-01-30T00:56:30;94605.84;;;-28.07
69420;BMP280;71621;52.030;113.516;2024-01-30T00:59:34;94597.50;;;-28.15
69420;BMP280;71621;52.030;113.516;2024-01-30T01:02:37;94597.25;;;-28.06
69420;BMP280;71621;52.030;113.516;2024-01-30T01:05:43;94602.94;;;-28.09
69420;BMP280;71621;52.030;113.516;2024-01-30T01:08:47;94596.78;;;-28.15
69420;BMP280;71621;52.030;113.516;2024-01-30T01:11:51;94597.09;;;-28.20
69420;BMP280;71621;52.030;113.516;2024-01-30T01:14:54;94594.31;;;-28.12
69420;BMP280;71621;52.030;113.516;2024-01-30T01:17:58;94590.16;;;-27.97
69420;BMP280;71621;52.030;113.516;2024-01-30T01:21:02;94591.69;;;-27.85
69420;BMP280;71621;52.030;113.516;2024-01-30T01:24:05;94592.84;;;-27.79
69420;BMP280;71621;52.030;113.516;2024-01-30T01:27:09;94595.03;;;-27.70
69420;BMP280;71621;52.030;113.516;2024-01-30T01:30:13;94603.34;;;-27.63
69420;BMP280;71621;52.030;113.516;2024-01-30T01:33:21;94598.38;;;-27.55
69420;BMP280;71621;52.030;113.516;2024-01-30T01:36:26;94595.97;;;-27.45
69420;BMP280;71621;52.030;113.516;2024-01-30T01:39:29;94601.78;;;-27.30
69420;BMP280;71621;52.030;113.516;2024-01-30T01:42:33;94599.63;;;-27.31
69420;BMP280;71621;52.030;113.516;2024-01-30T01:45:36;94593.16;;;-27.36
69420;BMP280;71621;52.030;113.516;2024-01-30T01:48:41;94613.25;;;-27.36
69420;BMP280;71621;52.030;113.516;2024-01-30T01:51:47;94611.53;;;-27.25
69420;BMP280;71621;52.030;113.516;2024-01-30T01:54:51;94618.41;;;-27.11
69420;BMP280;71621;52.030;113.516;2024-01-30T02:02:12;94613.25;;;-26.73
69420;BMP280;71621;52.030;113.516;2024-01-30T02:05:18;94603.50;;;-26.82
69420;BMP280;71621;52.030;113.516;2024-01-30T02:08:23;94610.34;;;-26.75
69420;BMP280;71621;52.030;113.516;2024-01-30T02:11:28;94605.75;;;-26.63
69420;BMP280;71621;52.030;113.516;2024-01-30T02:14:32;94601.47;;;-26.48
69420;BMP280;71621;52.030;113.516;2024-01-30T02:17:35;94604.78;;;-26.29
69420;BMP280;71621;52.030;113.516;2024-01-30T02:20:39;94598.69;;;-26.21
69420;BMP280;71621;52.030;113.516;2024-01-30T02:23:44;94600.47;;;-26.15
69420;BMP280;71621;52.030;113.516;2024-01-30T02:26:49;94597.97;;;-26.04
69420;BMP280;71621;52.030;113.516;2024-01-30T02:29:53;94597.66;;;-25.99
69420;BMP280;71621;52.030;113.516;2024-01-30T02:32:56;94596.94;;;-25.99
69420;BMP280;71621;52.030;113.516;2024-01-30T02:36:00;94598.69;;;-26.10
69420;BMP280;71621;52.030;113.516;2024-01-30T02:39:04;94595.44;;;-26.22
69420;BMP280;71621;52.030;113.516;2024-01-30T02:42:08;94596.53;;;-26.23
69420;BMP280;71621;52.030;113.516;2024-01-30T02:45:12;94605.88;;;-26.27
69420;BMP280;71621;52.030;113.516;2024-01-30T02:48:16;94606.63;;;-26.01
69420;BMP280;71621;52.030;113.516;2024-01-30T02:51:19;94599.44;;;-25.92
69420;BMP280;71621;52.030;113.516;2024-01-30T02:54:23;94604.13;;;-25.83
69420;BMP280;71621;52.030;113.516;2024-01-30T02:57:27;94600.53;;;-25.86
69420;BMP280;71621;52.030;113.516;2024-01-30T03:00:31;94605.22;;;-25.81
69420;BMP280;71621;52.030;113.516;2024-01-30T03:03:34;94600.53;;;-25.72
69420;BMP280;71621;52.030;113.516;2024-01-30T03:06:39;94613.16;;;-25.79
69420;BMP280;71621;52.030;113.516;2024-01-30T03:09:47;94613.47;;;-25.84
69420;BMP280;71621;52.030;113.516;2024-01-30T03:12:52;94610.94;;;-25.98
69420;BMP280;71621;52.030;113.516;2024-01-30T03:15:55;94602.69;;;-25.84
69420;BMP280;71621;52.030;113.516;2024-01-30T03:18:59;94608.81;;;-25.75
69420;BMP280;71621;52.030;113.516;2024-01-30T03:22:04;94603.06;;;-25.89
69420;BMP280;71621;52.030;113.516;2024-01-30T03:25:08;94597.66;;;-25.95
69420;BMP280;71621;52.030;113.516;2024-01-30T03:28:11;94588.28;;;-25.98
69420;BMP280;71621;52.030;113.516;2024-01-30T03:31:15;94587.25;;;-25.90
69420;BMP280;71621;52.030;113.516;2024-01-30T03:34:19;94589.38;;;-25.85
69420;BMP280;71621;52.030;113.516;2024-01-30T03:37:23;94584.72;;;-25.83
69420;BMP280;71621;52.030;113.516;2024-01-30T03:40:27;94576.78;;;-25.81
69420;BMP280;71621;52.030;113.516;2024-01-30T03:43:31;94578.97;;;-25.87
69420;BMP280;71621;52.030;113.516;2024-01-30T03:46:34;94574.66;;;-25.90
69420;BMP280;71621;52.030;113.516;2024-01-30T03:49:38;94568.50;;;-25.93
69420;BMP280;71621;52.030;113.516;2024-01-30T03:52:42;94566.00;;;-25.96
69420;BMP280;71621;52.030;113.516;2024-01-30T03:55:45;94554.84;;;-25.88
69420;BMP280;71621;52.030;113.516;2024-01-30T03:58:49;94553.38;;;-25.71
69420;BMP280;71621;52.030;113.516;2024-01-30T04:01:53;94555.16;;;-25.50
69420;BMP280;71621;52.030;113.516;2024-01-30T04:04:57;94557.31;;;-25.27
69420;BMP280;71621;52.030;113.516;2024-01-30T04:08:02;94550.75;;;-24.96
69420;BMP280;71621;52.030;113.516;2024-01-30T04:11:05;94539.84;;;-24.71
69420;BMP280;71621;52.030;113.516;2024-01-30T04:14:10;94541.91;;;-24.59
69420;BMP280;71621;52.030;113.516;2024-01-30T04:17:14;94532.19;;;-24.57
69420;BMP280;71621;52.030;113.516;2024-01-30T04:20:17;94534.31;;;-24.52
69420;BMP280;71621;52.030;113.516;2024-01-30T04:23:21;94537.59;;;-24.51
69420;BMP280;71621;52.030;113.516;2024-01-30T04:26:24;94538.66;;;-24.56
69420;BMP280;71621;52.030;113.516;2024-01-30T04:29:28;94529.28;;;-24.55
69420;BMP280;71621;52.030;113.516;2024-01-30T04:32:32;94524.19;;;-24.45
69420;BMP280;71621;52.030;113.516;2024-01-30T04:35:36;94526.28;;;-24.32
69420;BMP280;71621;52.030;113.516;2024-01-30T04:38:40;94525.44;;;-24.15
69420;BMP280;71621;52.030;113.516;2024-01-30T04:41:44;94522.81;;;-23.97
69420;BMP280;71621;52.030;113.516;2024-01-30T04:44:47;94521.38;;;-24.05
69420;BMP280;71621;52.030;113.516;2024-01-30T04:47:51;94525.72;;;-24.06
69420;BMP280;71621;52.030;113.516;2024-01-30T04:50:54;94517.94;;;-24.22
69420;BMP280;71621;52.030;113.516;2024-01-30T04:53:59;94529.09;;;-24.23
69420;BMP280;71621;52.030;113.516;2024-01-30T04:57:03;94517.41;;;-23.99
69420;BMP280;71621;52.030;113.516;2024-01-30T05:00:07;94527.19;;;-23.63
69420;BMP280;71621;52.030;113.516;2024-01-30T05:03:11;94519.91;;;-23.58
69420;BMP280;71621;52.030;113.516;2024-01-30T05:06:24;94523.09;;;-23.50
69420;BMP280;71621;52.030;113.516;2024-01-30T05:09:28;94527.78;;;-23.49
69420;BMP280;71621;52.030;113.516;2024-01-30T05:12:32;94523.56;;;-23.25
69420;BMP280;71621;52.030;113.516;2024-01-30T05:15:36;94519.75;;;-23.09
69420;BMP280;71621;52.030;113.516;2024-01-30T05:18:40;94517.81;;;-22.94
69420;BMP280;71621;52.030;113.516;2024-01-30T05:21:44;94514.50;;;-22.91
69420;BMP280;71621;52.030;113.516;2024-01-30T05:24:48;94516.63;;;-22.86
69420;BMP280;71621;52.030;113.516;2024-01-30T05:27:51;94520.84;;;-22.76
69420;BMP280;71621;52.030;113.516;2024-01-30T05:30:56;94519.50;;;-22.57
69420;BMP280;71621;52.030;113.516;2024-01-30T05:33:59;94518.22;;;-22.42
69420;BMP280;71621;52.030;113.516;2024-01-30T05:37:04;94513.53;;;-22.43
69420;BMP280;71621;52.030;113.516;2024-01-30T05:40:07;94515.06;;;-22.49
69420;BMP280;71621;52.030;113.516;2024-01-30T05:43:12;94511.34;;;-22.41
69420;BMP280;71621;52.030;113.516;2024-01-30T05:46:15;94506.88;;;-22.33
69420;BMP280;71621;52.030;113.516;2024-01-30T05:49:22;94511.47;;;-22.25
69420;BMP280;71621;52.030;113.516;2024-01-30T05:52:25;94501.44;;;-22.08
69420;BMP280;71621;52.030;113.516;2024-01-30T05:55:29;94508.25;;;-21.82
69420;BMP280;71621;52.030;113.516;2024-01-30T05:58:32;94515.94;;;-21.65
69420;BMP280;71621;52.030;113.516;2024-01-30T06:01:36;94507.88;;;-21.60
69420;BMP280;71621;52.030;113.516;2024-01-30T06:04:40;94504.56;;;-21.57
69420;BMP280;71621;52.030;113.516;2024-01-30T06:07:44;94495.00;;;-21.70
69420;BMP280;71621;52.030;113.516;2024-01-30T06:10:48;94496.16;;;-21.74
69420;BMP280;71621;52.030;113.516;2024-01-30T06:13:52;94491.56;;;-21.59
69420;BMP280;71621;52.030;113.516;2024-01-30T06:16:56;94490.41;;;-21.55
69420;BMP280;71621;52.030;113.516;2024-01-30T06:19:59;94497.56;;;-21.50
69420;BMP280;71621;52.030;113.516;2024-01-30T06:23:03;94486.63;;;-21.47
69420;BMP280;71621;52.030;113.516;2024-01-30T06:26:07;94490.16;;;-21.40
69420;BMP280;71621;52.030;113.516;2024-01-30T06:29:11;94490.31;;;-21.31
69420;BMP280;71621;52.030;113.516;2024-01-30T06:32:16;94485.91;;;-21.27
69420;BMP280;71621;52.030;113.516;2024-01-30T06:35:20;94482.50;;;-21.21
69420;BMP280;71621;52.030;113.516;2024-01-30T06:38:24;94480.28;;;-21.18
69420;BMP280;71621;52.030;113.516;2024-01-30T06:41:28;94482.38;;;-21.13
69420;BMP280;71621;52.030;113.516;2024-01-30T06:44:32;94482.09;;;-20.99
69420;BMP280;71621;52.030;113.516;2024-01-30T06:47:36;94479.06;;;-20.94
69420;BMP280;71621;52.030;113.516;2024-01-30T06:50:40;94476.63;;;-20.81
69420;BMP280;71621;52.030;113.516;2024-01-30T06:53:44;94486.56;;;-20.70
69420;BMP280;71621;52.030;113.516;2024-01-30T06:56:47;94485.16;;;-20.55
69420;BMP280;71621;52.030;113.516;2024-01-30T06:59:51;94482.28;;;-20.41
69420;BMP280;71621;52.030;113.516;2024-01-30T07:02:55;94490.06;;;-20.32
69420;BMP280;71621;52.030;113.516;2024-01-30T07:05:59;94489.22;;;-20.25
69420;BMP280;71621;52.030;113.516;2024-01-30T07:09:02;94490.69;;;-20.11
69420;BMP280;71621;52.030;113.516;2024-01-30T07:12:06;94488.47;;;-20.09
69420;BMP280;71621;52.030;113.516;2024-01-30T07:15:10;94496.56;;;-19.98
69420;BMP280;71621;52.030;113.516;2024-01-30T07:18:15;94493.81;;;-19.91
69420;BMP280;71621;52.030;113.516;2024-01-30T07:21:18;94486.75;;;-19.83
69420;BMP280;71621;52.030;113.516;2024-01-30T07:24:22;94491.03;;;-19.80
69420;BMP280;71621;52.030;113.516;2024-01-30T07:27:25;94498.81;;;-19.71
69420;BMP280;71621;52.030;113.516;2024-01-30T07:30:28;94491.38;;;-19.65
69420;BMP280;71621;52.030;113.516;2024-01-30T07:33:32;94498.13;;;-19.58
69420;BMP280;71621;52.030;113.516;2024-01-30T07:36:36;94500.97;;;-19.56
69420;BMP280;71621;52.030;113.516;2024-01-30T07:39:41;94498.97;;;-19.49
69420;BMP280;71621;52.030;113.516;2024-01-30T07:42:45;94508.25;;;-19.42
69420;BMP280;71621;52.030;113.516;2024-01-30T07:45:49;94508.47;;;-19.37
69420;BMP280;71621;52.030;113.516;2024-01-30T07:48:54;94499.00;;;-19.36
69420;BMP280;71621;52.030;113.516;2024-01-30T07:52:02;94495.84;;;-19.40
69420;BMP280;71621;52.030;113.516;2024-01-30T07:59:12;94504.78;;;-19.35
69420;BMP280;71621;52.030;113.516;2024-01-30T08:02:16;94492.69;;;-19.31
69420;BMP280;71621;52.030;113.516;2024-01-30T08:05:19;94498.91;;;-19.32
69420;BMP280;71621;52.030;113.516;2024-01-30T08:08:26;94498.50;;;-19.31
69420;BMP280;71621;52.030;113.516;2024-01-30T08:11:30;94489.75;;;-19.30
69420;BMP280;71621;52.030;113.516;2024-01-30T08:14:34;94494.84;;;-19.30
69420;BMP280;71621;52.030;113.516;2024-01-30T08:17:38;94494.13;;;-19.30
69420;BMP280;71621;52.030;113.516;2024-01-30T08:20:42;94497.06;;;-19.32
69420;BMP280;71621;52.030;113.516;2024-01-30T08:23:45;94496.34;;;-19.32
69420;BMP280;71621;52.030;113.516;2024-01-30T08:26:49;94494.28;;;-19.38
69420;BMP280;71621;52.030;113.516;2024-01-30T08:29:53;94504.25;;;-19.43
69420;BMP280;71621;52.030;113.516;2024-01-30T08:32:56;94501.00;;;-19.44
69420;BMP280;71621;52.030;113.516;2024-01-30T08:36:00;94497.44;;;-19.46
69420;BMP280;71621;52.030;113.516;2024-01-30T08:39:05;94507.22;;;-19.45
69420;BMP280;71621;52.030;113.516;2024-01-30T08:42:08;94505.78;;;-19.46
69420;BMP280;71621;52.030;113.516;2024-01-30T08:45:12;94502.00;;;-19.54
69420;BMP280;71621;52.030;113.516;2024-01-30T08:48:15;94503.78;;;-19.67
69420;BMP280;71621;52.030;113.516;2024-01-30T08:51:21;94502.66;;;-19.66
69420;BMP280;71621;52.030;113.516;2024-01-30T08:54:24;94495.22;;;-19.73
69420;BMP280;71621;52.030;113.516;2024-01-30T08:57:28;94498.56;;;-19.76
69420;BMP280;71621;52.030;113.516;2024-01-30T09:00:32;94497.63;;;-19.83
69420;BMP280;71621;52.030;113.516;2024-01-30T09:03:37;94503.28;;;-19.91
69420;BMP280;71621;52.030;113.516;2024-01-30T09:06:43;94496.50;;;-19.94
69420;BMP280;71621;52.030;113.516;2024-01-30T09:09:47;94504.31;;;-19.89
69420;BMP280;71621;52.030;113.516;2024-01-30T09:12:50;94498.53;;;-19.89
69420;BMP280;71621;52.030;113.516;2024-01-30T09:15:54;94506.41;;;-20.00
69420;BMP280;71621;52.030;113.516;2024-01-30T09:18:58;94502.00;;;-20.12
69420;BMP280;71621;52.030;113.516;2024-01-30T09:22:02;94498.19;;;-20.20
69420;BMP280;71621;52.030;113.516;2024-01-30T09:25:06;94497.84;;;-20.22
69420;BMP280;71621;52.030;113.516;2024-01-30T09:28:11;94496.34;;;-20.20
69420;BMP280;71621;52.030;113.516;2024-01-30T09:31:14;94495.00;;;-20.24
69420;BMP280;71621;52.030;113.516;2024-01-30T09:34:20;94504.81;;;-20.26
69420;BMP280;71621;52.030;113.516;2024-01-30T09:37:23;94508.91;;;-20.29
69420;BMP280;71621;52.030;113.516;2024-01-30T09:40:29;94517.72;;;-20.34
69420;BMP280;71621;52.030;113.516;2024-01-30T09:43:33;94515.13;;;-20.46
69420;BMP280;71621;52.030;113.516;2024-01-30T09:46:40;94509.38;;;-20.50
69420;BMP280;71621;52.030;113.516;2024-01-30T09:49:44;94521.66;;;-20.49
69420;BMP280;71621;52.030;113.516;2024-01-30T09:52:49;94521.84;;;-20.56
69420;BMP280;71621;52.030;113.516;2024-01-30T09:55:54;94514.66;;;-20.61
69420;BMP280;71621;52.030;113.516;2024-01-30T09:58:58;94523.72;;;-20.60
69420;BMP280;71621;52.030;113.516;2024-01-30T10:02:01;94528.63;;;-20.69
69420;BMP280;71621;52.030;113.516;2024-01-30T10:05:08;94541.03;;;-20.71
69420;BMP280;71621;52.030;113.516;2024-01-30T10:08:12;94526.50;;;-20.71
69420;BMP280;71621;52.030;113.516;2024-01-30T10:11:16;94530.22;;;-20.76
69420;BMP280;71621;52.030;113.516;2024-01-30T10:14:20;94540.09;;;-20.81
69420;BMP280;71621;52.030;113.516;2024-01-30T10:17:25;94538.06;;;-20.86
69420;BMP280;71621;52.030;113.516;2024-01-30T10:20:36;94546.00;;;-20.84
69420;BMP280;71621;52.030;113.516;2024-01-30T10:23:40;94546.84;;;-20.91
69420;BMP280;71621;52.030;113.516;2024-01-30T10:26:44;94546.28;;;-20.99
69420;BMP280;71621;52.030;113.516;2024-01-30T10:29:48;94554.88;;;-21.12
69420;BMP280;71621;52.030;113.516;2024-01-30T10:32:52;94552.28;;;-21.29
69420;BMP280;71621;52.030;113.516;2024-01-30T10:36:04;94561.41;;;-21.35
69420;BMP280;71621;52.030;113.516;2024-01-30T10:39:09;94553.16;;;-21.39
69420;BMP280;71621;52.030;113.516;2024-01-30T10:42:15;94550.63;;;-21.39
69420;BMP280;71621;52.030;113.516;2024-01-30T10:45:19;94554.72;;;-21.45
69420;BMP280;71621;52.030;113.516;2024-01-30T10:48:26;94553.00;;;-21.52
69420;BMP280;71621;52.030;113.516;2024-01-30T10:51:34;94560.63;;;-21.52
69420;BMP280;71621;52.030;113.516;2024-01-30T10:54:40;94559.88;;;-21.49
69420;BMP280;71621;52.030;113.516;2024-01-30T10:57:43;94562.09;;;-21.51
69420;BMP280;71621;52.030;113.516;2024-01-30T11:00:47;94567.88;;;-21.50
69420;BMP280;71621;52.030;113.516;2024-01-30T11:03:53;94566.16;;;-21.57
69420;BMP280;71621;52.030;113.516;2024-01-30T11:06:57;94572.84;;;-21.67
69420;BMP280;71621;52.030;113.516;2024-01-30T11:10:03;94576.59;;;-21.75
69420;BMP280;71621;52.030;113.516;2024-01-30T11:13:10;94573.41;;;-21.79
69420;BMP280;71621;52.030;113.516;2024-01-30T11:16:17;94577.81;;;-21.83
69420;BMP280;71621;52.030;113.516;2024-01-30T11:19:24;94569.91;;;-21.88
69420;BMP280;71621;52.030;113.516;2024-01-30T11:22:30;94592.56;;;-21.78
69420;BMP280;71621;52.030;113.516;2024-01-30T11:25:34;94589.81;;;-21.87
69420;BMP280;71621;52.030;113.516;2024-01-30T11:28:39;94591.00;;;-21.95
69420;BMP280;71621;52.030;113.516;2024-01-30T11:31:52;94598.38;;;-22.04
69420;BMP280;71621;52.030;113.516;2024-01-30T11:34:56;94599.94;;;-22.10
69420;BMP280;71621;52.030;113.516;2024-01-30T11:38:02;94598.06;;;-22.06
69420;BMP280;71621;52.030;113.516;2024-01-30T11:41:07;94606.38;;;-22.06
69420;BMP280;71621;52.030;113.516;2024-01-30T11:44:11;94608.38;;;-22.21
69420;BMP280;71621;52.030;113.516;2024-01-30T11:47:15;94605.53;;;-22.23
69420;BMP280;71621;52.030;113.516;2024-01-30T11:50:19;94610.59;;;-22.23
69420;BMP280;71621;52.030;113.516;2024-01-30T11:53:23;94616.78;;;-22.27
69420;BMP280;71621;52.030;113.516;2024-01-30T11:56:27;94621.81;;;-22.24
69420;BMP280;71621;52.030;113.516;2024-01-30T11:59:31;94613.28;;;-22.33
69420;BMP280;71621;52.030;113.516;2024-01-30T12:02:34;94604.59;;;-22.36
69420;BMP280;71621;52.030;113.516;2024-01-30T12:05:39;94611.47;;;-22.37
69420;BMP280;71621;52.030;113.516;2024-01-30T12:09:02;94619.84;;;-22.40
69420;BMP280;71621;52.030;113.516;2024-01-30T12:12:11;94609.44;;;-22.45
69420;BMP280;71621;52.030;113.516;2024-01-30T12:15:18;94612.75;;;-22.52
69420;BMP280;71621;52.030;113.516;2024-01-30T12:18:24;94613.94;;;-22.60
69420;BMP280;71621;52.030;113.516;2024-01-30T12:21:28;94622.00;;;-22.69
69420;BMP280;71621;52.030;113.516;2024-01-30T12:24:32;94624.88;;;-22.67
69420;BMP280;71621;52.030;113.516;2024-01-30T12:27:37;94623.81;;;-22.69
69420;BMP280;71621;52.030;113.516;2024-01-30T12:30:41;94619.13;;;-22.71
69420;BMP280;71621;52.030;113.516;2024-01-30T12:33:44;94623.88;;;-22.73
69420;BMP280;71621;52.030;113.516;2024-01-30T12:36:53;94620.28;;;-22.79
69420;BMP280;71621;52.030;113.516;2024-01-30T12:39:57;94621.50;;;-22.87
69420;BMP280;71621;52.030;113.516;2024-01-30T12:43:01;94625.09;;;-22.88
69420;BMP280;71621;52.030;113.516;2024-01-30T12:46:05;94628.00;;;-22.90
69420;BMP280;71621;52.030;113.516;2024-01-30T12:49:09;94630.53;;;-22.90
69420;BMP280;71621;52.030;113.516;2024-01-30T12:52:16;94626.97;;;-22.92
69420;BMP280;71621;52.030;113.516;2024-01-30T12:55:21;94628.00;;;-22.90
69420;BMP280;71621;52.030;113.516;2024-01-30T12:58:24;94628.44;;;-22.98
69420;BMP280;71621;52.030;113.516;2024-01-30T13:01:28;94630.97;;;-22.95
69420;BMP280;71621;52.030;113.516;2024-01-30T13:04:32;94640.47;;;-23.10
69420;BMP280;71621;52.030;113.516;2024-01-30T13:07:36;94639.41;;;-23.12
69420;BMP280;71621;52.030;113.516;2024-01-30T13:10:40;94638.03;;;-23.20
69420;BMP280;71621;52.030;113.516;2024-01-30T13:13:44;94645.53;;;-23.10
69420;BMP280;71621;52.030;113.516;2024-01-30T13:16:47;94650.59;;;-23.10
69420;BMP280;71621;52.030;113.516;2024-01-30T13:19:52;94649.44;;;-23.02
69420;BMP280;71621;52.030;113.516;2024-01-30T13:23:03;94646.91;;;-22.98
69420;BMP280;71621;52.030;113.516;2024-01-30T13:26:07;94650.13;;;-22.97
69420;BMP280;71621;52.030;113.516;2024-01-30T13:29:11;94654.41;;;-22.91
69420;BMP280;71621;52.030;113.516;2024-01-30T13:32:14;94655.13;;;-22.90
69420;BMP280;71621;52.030;113.516;2024-01-30T13:35:18;94665.28;;;-22.94
69420;BMP280;71621;52.030;113.516;2024-01-30T13:38:22;94663.50;;;-22.97
69420;BMP280;71621;52.030;113.516;2024-01-30T13:41:26;94672.59;;;-23.03
69420;BMP280;71621;52.030;113.516;2024-01-30T13:44:29;94674.69;;;-22.94
69420;BMP280;71621;52.030;113.516;2024-01-30T13:47:33;94669.56;;;-22.87
69420;BMP280;71621;52.030;113.516;2024-01-30T13:50:37;94669.56;;;-22.87
69420;BMP280;71621;52.030;113.516;2024-01-30T13:53:41;94665.84;;;-23.17
69420;BMP280;71621;52.030;113.516;2024-01-30T13:56:44;94672.16;;;-23.36
69420;BMP280;71621;52.030;113.516;2024-01-30T13:59:48;94671.47;;;-23.40
69420;BMP280;71621;52.030;113.516;2024-01-30T14:02:51;94671.44;;;-23.36
69420;BMP280;71621;52.030;113.516;2024-01-30T14:05:59;94669.19;;;-23.31
69420;BMP280;71621;52.030;113.516;2024-01-30T14:09:02;94671.66;;;-23.20
69420;BMP280;71621;52.030;113.516;2024-01-30T14:12:10;94674.22;;;-23.23
69420;BMP280;71621;52.030;113.516;2024-01-30T14:15:14;94663.38;;;-23.24
69420;BMP280;71621;52.030;113.516;2024-01-30T14:18:29;94670.59;;;-23.22
69420;BMP280;71621;52.030;113.516;2024-01-30T14:21:33;94667.69;;;-23.17
69420;BMP280;71621;52.030;113.516;2024-01-30T14:24:36;94672.66;;;-23.10
69420;BMP280;71621;52.030;113.516;2024-01-30T14:27:40;94670.91;;;-23.17
69420;BMP280;71621;52.030;113.516;2024-01-30T14:30:44;94674.22;;;-23.23
69420;BMP280;71621;52.030;113.516;2024-01-30T14:33:47;94676.44;;;-23.29
69420;BMP280;71621;52.030;113.516;2024-01-30T14:36:54;94679.31;;;-23.31
69420;BMP280;71621;52.030;113.516;2024-01-30T14:39:57;94678.69;;;-23.42
69420;BMP280;71621;52.030;113.516;2024-01-30T14:43:01;94673.72;;;-23.49
69420;BMP280;71621;52.030;113.516;2024-01-30T14:46:05;94669.06;;;-23.58
69420;BMP280;71621;52.030;113.516;2024-01-30T14:49:10;94679.25;;;-23.68
69420;BMP280;71621;52.030;113.516;2024-01-30T14:52:14;94684.75;;;-23.81
69420;BMP280;71621;52.030;113.516;2024-01-30T14:55:17;94693.09;;;-23.91
69420;BMP280;71621;52.030;113.516;2024-01-30T14:58:21;94697.00;;;-23.86
69420;BMP280;71621;52.030;113.516;2024-01-30T15:01:25;94698.47;;;-23.85
69420;BMP280;71621;52.030;113.516;2024-01-30T15:04:29;94696.34;;;-23.94
69420;BMP280;71621;52.030;113.516;2024-01-30T15:07:33;94688.81;;;-24.05
69420;BMP280;71621;52.030;113.516;2024-01-30T15:10:42;94693.53;;;-24.07
69420;BMP280;71621;52.030;113.516;2024-01-30T15:13:47;94684.09;;;-23.96
69420;BMP280;71621;52.030;113.516;2024-01-30T15:16:51;94692.41;;;-23.99
69420;BMP280;71621;52.030;113.516;2024-01-30T15:19:55;94688.47;;;-24.07
69420;BMP280;71621;52.030;113.516;2024-01-30T15:22:58;94693.50;;;-24.03
69420;BMP280;71621;52.030;113.516;2024-01-30T15:26:02;94696.75;;;-24.03
69420;BMP280;71621;52.030;113.516;2024-01-30T15:29:06;94695.00;;;-24.17
69420;BMP280;71621;52.030;113.516;2024-01-30T15:32:09;94688.56;;;-24.28
69420;BMP280;71621;52.030;113.516;2024-01-30T15:35:13;94687.13;;;-24.29
69420;BMP280;71621;52.030;113.516;2024-01-30T15:38:18;94699.00;;;-24.30
69420;BMP280;71621;52.030;113.516;2024-01-30T15:41:24;94695.44;;;-24.32
69420;BMP280;71621;52.030;113.516;2024-01-30T15:44:27;94697.25;;;-24.33
69420;BMP280;71621;52.030;113.516;2024-01-30T15:47:31;94696.53;;;-24.41
69420;BMP280;71621;52.030;113.516;2024-01-30T15:50:35;94711.69;;;-24.33
69420;BMP280;71621;52.030;113.516;2024-01-30T15:53:38;94703.38;;;-24.34
69420;BMP280;71621;52.030;113.516;2024-01-30T15:56:42;94708.09;;;-24.43
69420;BMP280;71621;52.030;113.516;2024-01-30T15:59:46;94708.13;;;-24.50
69420;BMP280;71621;52.030;113.516;2024-01-30T16:02:50;94720.38;;;-24.52
69420;BMP280;71621;52.030;113.516;2024-01-30T16:05:53;94717.13;;;-24.53
69420;BMP280;71621;52.030;113.516;2024-01-30T16:08:57;94719.28;;;-24.55
69420;BMP280;71621;52.030;113.516;2024-01-30T16:12:01;94727.19;;;-24.42
69420;BMP280;71621;52.030;113.516;2024-01-30T16:15:04;94722.16;;;-24.56
69420;BMP280;71621;52.030;113.516;2024-01-30T16:18:08;94720.78;;;-24.65
69420;BMP280;71621;52.030;113.516;2024-01-30T16:21:12;94729.06;;;-24.64
69420;BMP280;71621;52.030;113.516;2024-01-30T16:24:17;94726.88;;;-24.62
69420;BMP280;71621;52.030;113.516;2024-01-30T16:27:21;94738.75;;;-24.52
69420;BMP280;71621;52.030;113.516;2024-01-30T16:30:25;94736.22;;;-24.52
69420;BMP280;71621;52.030;113.516;2024-01-30T16:33:29;94737.31;;;-24.56
69420;BMP280;71621;52.030;113.516;2024-01-30T16:36:33;94740.25;;;-24.72
69420;BMP280;71621;52.030;113.516;2024-01-30T16:39:37;94739.50;;;-24.76
69420;BMP280;71621;52.030;113.516;2024-01-30T16:42:40;94751.06;;;-24.83
69420;BMP280;71621;52.030;113.516;2024-01-30T16:45:44;94760.06;;;-24.82
69420;BMP280;71621;52.030;113.516;2024-01-30T16:48:48;94756.44;;;-24.88
69420;BMP280;71621;52.030;113.516;2024-01-30T16:51:55;94763.69;;;-24.86
69420;BMP280;71621;52.030;113.516;2024-01-30T16:55:03;94746.75;;;-24.93
69420;BMP280;71621;52.030;113.516;2024-01-30T16:58:07;94763.69;;;-24.83
69420;BMP280;71621;52.030;113.516;2024-01-30T17:01:11;94764.00;;;-24.77
69420;BMP280;71621;52.030;113.516;2024-01-30T17:04:16;94765.09;;;-24.89